Time;durP1;ratioP1;P1;durP2;ratioP2;P2;SDS_P1;SDS_P2;PMS_P1;PMS_P2;Temp;Humidity;BMP_temperature;BMP_pressure;BME280_temperature;BME280_humidity;BME280_pressure;Samples;Min_cycle;Max_cycle;Signal;HPM_P1;HPM_P2
2021/12/16 00:05:11;;;;;;;93.40;39.70;;;;;;;4.47;93.28;99723.61;103687;1323;137762;-87
2021/12/16 00:07:35;;;;;;;98.10;41.80;;;;;;;4.47;93.65;99722.23;103522;1319;22676;-86
2021/12/16 00:10:26;;;;;;;95.50;42.00;;;;;;;4.45;93.37;99717.89;103161;1326;138918;-87
2021/12/16 00:32:28;;;;;;;91.20;38.40;;;;;;;4.35;93.62;99719.25;103800;1318;22669;-86
2021/12/16 00:34:57;;;;;;;91.60;39.50;;;;;;;4.34;93.73;99722.01;103281;1324;138975;-88
2021/12/16 00:37:27;;;;;;;86.20;38.90;;;;;;;4.35;93.75;99725.38;103402;1320;22674;-87
2021/12/16 00:39:56;;;;;;;81.80;38.00;;;;;;;4.35;94.05;99724.05;103044;1323;137949;-88
2021/12/16 00:48:00;;;;;;;81.50;37.70;;;;;;;4.39;93.94;99719.46;103466;1319;138236;-87
2021/12/16 00:55:56;;;;;;;92.10;40.00;;;;;;;4.36;94.06;99716.16;103263;1318;22641;-89
2021/12/16 00:58:29;;;;;;;85.50;37.50;;;;;;;4.36;94.06;99713.13;103109;1322;138796;-88
2021/12/16 01:34:47;;;;;;;87.90;38.50;;;;;;;4.35;94.32;99694.19;103214;1319;138953;-88
2021/12/16 01:37:51;;;;;;;81.10;34.20;;;;;;;4.35;94.57;99691.20;103408;1320;22646;-87
2021/12/16 01:46:12;;;;;;;84.90;38.20;;;;;;;4.36;94.44;99677.40;102830;1325;138386;-87
2021/12/16 01:51:35;;;;;;;87.50;38.40;;;;;;;4.35;94.32;99665.23;103237;1322;22657;-88
2021/12/16 01:57:09;;;;;;;86.60;39.30;;;;;;;4.32;94.27;99665.98;103214;1322;22600;-88
2021/12/16 01:59:41;;;;;;;81.90;38.70;;;;;;;4.30;94.31;99659.58;103791;1319;139416;-87
2021/12/16 02:05:32;;;;;;;84.90;36.50;;;;;;;4.30;94.25;99655.65;103078;1322;138198;-88
2021/12/16 02:10:42;;;;;;;80.10;36.90;;;;;;;4.29;94.66;99661.29;103123;1322;138205;-85
2021/12/16 02:36:00;;;;;;;86.50;37.20;;;;;;;4.30;95.31;99648.37;103396;1319;137999;-90
2021/12/16 02:38:05;;;;;;;80.10;36.60;;;;;;;4.29;95.30;99641.34;103429;1322;22728;-87
2021/12/16 02:40:34;;;;;;;75.20;32.90;;;;;;;4.34;95.40;99649.15;103368;1321;138483;-88
2021/12/16 02:48:32;;;;;;;74.50;33.40;;;;;;;4.40;95.35;99656.48;103234;1319;137595;-88
2021/12/16 02:51:21;;;;;;;83.70;33.60;;;;;;;4.39;95.11;99655.68;103214;1316;30799;-87
2021/12/16 02:53:55;;;;;;;75.80;33.30;;;;;;;4.40;95.09;99655.06;103283;1319;138816;-86
2021/12/16 02:56:25;;;;;;;73.60;33.30;;;;;;;4.42;95.25;99649.44;103162;1321;24301;-88
2021/12/16 02:58:56;;;;;;;76.90;35.30;;;;;;;4.44;95.27;99652.26;103100;1325;138525;-86
2021/12/16 03:01:30;;;;;;;79.40;34.60;;;;;;;4.45;95.19;99652.89;103114;1319;22694;-86
2021/12/16 03:04:02;;;;;;;71.80;31.40;;;;;;;4.44;94.98;99641.43;103494;1321;22549;-87
2021/12/16 03:06:36;;;;;;;85.90;36.20;;;;;;;4.44;94.99;99642.02;103344;1322;138549;-87
2021/12/16 03:09:06;;;;;;;71.30;34.00;;;;;;;4.45;95.13;99640.81;103580;1318;22633;-87
2021/12/16 03:11:53;;;;;;;78.20;34.60;;;;;;;4.48;95.06;99642.11;103282;1316;138080;-86
2021/12/16 03:14:33;;;;;;;81.10;35.40;;;;;;;4.47;94.97;99640.16;103369;1322;22583;-86
2021/12/16 03:19:45;;;;;;;74.50;35.00;;;;;;;4.45;94.53;99633.06;103429;1319;22684;-87
2021/12/16 03:22:26;;;;;;;77.50;34.30;;;;;;;4.47;95.11;99635.88;103257;1324;24428;-87
2021/12/16 03:27:45;;;;;;;75.70;33.80;;;;;;;4.45;94.84;99638.63;103143;1318;24313;-87
2021/12/16 03:30:45;;;;;;;70.40;32.70;;;;;;;4.44;94.81;99641.42;103398;1316;138384;-87
2021/12/16 03:38:46;;;;;;;75.90;34.30;;;;;;;4.45;94.87;99652.23;103262;1319;22643;-87
2021/12/16 03:41:14;;;;;;;79.90;35.00;;;;;;;4.45;95.07;99651.23;103095;1320;138041;-87
2021/12/16 03:43:46;;;;;;;75.10;35.70;;;;;;;4.44;95.02;99653.05;103462;1325;22657;-87
2021/12/16 03:46:27;;;;;;;71.00;33.30;;;;;;;4.44;95.03;99650.27;103213;1322;22580;-87
2021/12/16 03:49:23;;;;;;;75.80;33.90;;;;;;;4.43;94.93;99653.77;103251;1325;138266;-88
2021/12/16 03:52:08;;;;;;;73.90;32.40;;;;;;;4.42;95.10;99651.80;103268;1318;23126;-88
2021/12/16 03:54:49;;;;;;;78.60;34.80;;;;;;;4.38;94.94;99654.09;103773;1319;137911;-86
2021/12/16 03:57:21;;;;;;;81.80;33.20;;;;;;;4.36;95.31;99652.59;103496;1323;24289;-88
2021/12/16 03:59:50;;;;;;;74.50;33.10;;;;;;;4.35;95.02;99655.02;103214;1322;138565;-88
2021/12/16 04:02:32;;;;;;;75.00;32.60;;;;;;;4.34;95.12;99657.28;103396;1319;22654;-88
2021/12/16 04:05:01;;;;;;;81.80;34.50;;;;;;;4.34;95.25;99654.95;103034;1322;138865;-87
2021/12/16 04:07:37;;;;;;;82.20;34.20;;;;;;;4.36;95.34;99658.52;103217;1322;275977;-88
2021/12/16 04:10:39;;;;;;;87.30;36.10;;;;;;;4.36;95.39;99657.03;103331;1326;22579;-89
2021/12/16 04:13:14;;;;;;;70.70;31.20;;;;;;;4.37;95.41;99658.79;103203;1318;138370;-88
2021/12/16 04:15:51;;;;;;;67.40;30.90;;;;;;;4.37;95.35;99661.63;103239;1325;24240;-87
2021/12/16 04:18:21;;;;;;;77.60;35.20;;;;;;;4.37;95.45;99660.67;103288;1318;138191;-87
2021/12/16 04:20:49;;;;;;;74.60;35.30;;;;;;;4.38;95.44;99662.63;103321;1322;24221;-88
2021/12/16 04:23:19;;;;;;;87.20;36.60;;;;;;;4.38;95.47;99660.31;103231;1316;138009;-88
2021/12/16 04:25:48;;;;;;;83.20;36.00;;;;;;;4.37;95.54;99659.66;103066;1324;22587;-88
2021/12/16 04:28:26;;;;;;;77.70;33.40;;;;;;;4.37;95.34;99658.73;103459;1316;22583;-89
2021/12/16 04:30:56;;;;;;;73.50;32.90;;;;;;;4.38;95.36;99662.39;103287;1316;139047;-88
2021/12/16 04:33:28;;;;;;;75.20;32.20;;;;;;;4.40;95.72;99666.87;103280;1319;29640;-88
2021/12/16 04:35:58;;;;;;;84.20;35.90;;;;;;;4.41;95.52;99669.63;103038;1323;137843;-88
2021/12/16 04:38:26;;;;;;;82.10;33.60;;;;;;;4.40;95.47;99668.65;103089;1325;25291;-87
2021/12/16 04:40:54;;;;;;;80.60;33.10;;;;;;;4.41;95.48;99672.33;103369;1319;138891;-87
2021/12/16 04:43:25;;;;;;;76.30;33.70;;;;;;;4.42;95.50;99671.85;103362;1323;22613;-87
2021/12/16 04:46:20;;;;;;;75.60;32.60;;;;;;;4.43;95.42;99672.52;103439;1323;22655;-88
2021/12/16 04:48:52;;;;;;;97.20;37.70;;;;;;;4.40;95.43;99676.04;103236;1319;138436;-88
2021/12/16 04:51:31;;;;;;;84.40;34.60;;;;;;;4.39;95.56;99674.31;103729;1322;22617;-87
2021/12/16 04:54:02;;;;;;;77.60;34.00;;;;;;;4.38;95.36;99679.81;103341;1322;138416;-87
2021/12/16 04:56:31;;;;;;;71.80;29.60;;;;;;;4.38;95.30;99677.36;103135;1319;22739;-88
2021/12/16 04:59:10;;;;;;;65.40;29.20;;;;;;;4.37;95.63;99677.94;103301;1318;137972;-87
2021/12/16 05:01:41;;;;;;;81.90;33.60;;;;;;;4.37;95.55;99679.42;103261;1324;23188;-87
2021/12/16 05:04:10;;;;;;;77.00;31.00;;;;;;;4.36;95.67;99679.69;103352;1319;22585;-87
2021/12/16 05:06:39;;;;;;;69.80;29.40;;;;;;;4.36;95.69;99677.23;103203;1325;139026;-88
2021/12/16 05:09:12;;;;;;;75.90;29.40;;;;;;;4.36;95.62;99678.78;103518;1318;22655;-87
2021/12/16 05:11:50;;;;;;;73.00;31.00;;;;;;;4.36;95.66;99678.14;103162;1318;138546;-86
2021/12/16 05:14:19;;;;;;;86.90;32.40;;;;;;;4.34;95.52;99679.20;103291;1316;30423;-87
2021/12/16 05:16:47;;;;;;;77.90;30.60;;;;;;;4.31;95.51;99676.55;103435;1325;24211;-88
2021/12/16 05:19:15;;;;;;;71.90;30.10;;;;;;;4.31;95.76;99679.79;102986;1322;139212;-87
2021/12/16 05:21:51;;;;;;;72.00;30.80;;;;;;;4.32;95.86;99681.80;103225;1326;26594;-87
2021/12/16 05:24:27;;;;;;;71.80;29.80;;;;;;;4.34;96.21;99684.04;103353;1319;138286;-87
2021/12/16 05:27:06;;;;;;;70.40;29.60;;;;;;;4.37;96.03;99688.75;103282;1322;24461;-87
2021/12/16 05:29:34;;;;;;;76.60;30.60;;;;;;;4.36;96.10;99689.91;103422;1326;138392;-87
2021/12/16 05:32:03;;;;;;;76.40;30.20;;;;;;;4.40;96.18;99691.86;103326;1316;22595;-87
2021/12/16 05:34:32;;;;;;;72.10;29.00;;;;;;;4.44;96.29;99691.47;103198;1319;24222;-88
2021/12/16 05:37:02;;;;;;;70.60;30.30;;;;;;;4.47;95.98;99693.81;102861;1322;138312;-88
2021/12/16 05:39:30;;;;;;;71.70;29.60;;;;;;;4.49;96.16;99693.16;103266;1319;22777;-85
2021/12/16 05:42:16;;;;;;;71.30;30.50;;;;;;;4.50;95.80;99695.77;103228;1325;137667;-88
2021/12/16 05:44:45;;;;;;;75.80;32.00;;;;;;;4.50;95.93;99694.01;103305;1318;22581;-88
2021/12/16 05:47:12;;;;;;;66.70;29.40;;;;;;;4.49;95.73;99693.20;103160;1319;139255;-88
2021/12/16 05:49:39;;;;;;;62.20;27.10;;;;;;;4.49;95.52;99694.10;103265;1325;24373;-89
2021/12/16 05:52:07;;;;;;;68.30;29.20;;;;;;;4.47;95.73;99699.48;103292;1322;22599;-87
2021/12/16 05:54:34;;;;;;;56.40;26.20;;;;;;;4.46;95.76;99701.33;102915;1318;138159;-88
2021/12/16 05:57:24;;;;;;;73.50;29.80;;;;;;;4.43;95.67;99702.36;103292;1319;22588;-87
2021/12/16 05:59:56;;;;;;;72.60;29.60;;;;;;;4.42;95.77;99698.86;103187;1323;138594;-87
2021/12/16 06:02:23;;;;;;;69.30;27.90;;;;;;;4.41;95.77;99696.13;103426;1319;22600;-88
2021/12/16 06:04:51;;;;;;;69.70;30.10;;;;;;;4.40;95.81;99696.53;103386;1320;25380;-88
2021/12/16 06:07:19;;;;;;;67.40;30.30;;;;;;;4.42;96.04;99694.38;103356;1319;138072;-88
2021/12/16 06:09:48;;;;;;;72.20;30.80;;;;;;;4.43;96.15;99695.44;103174;1326;25242;-87
2021/12/16 06:12:16;;;;;;;69.60;28.10;;;;;;;4.43;96.08;99692.41;103361;1323;137999;-88
2021/12/16 06:14:56;;;;;;;78.00;29.30;;;;;;;4.43;95.90;99694.07;103496;1320;22709;-88
2021/12/16 06:28:24;;;;;;;77.40;29.30;;;;;;;4.50;96.31;99705.96;103655;1320;22945;-88
2021/12/16 06:30:52;;;;;;;70.40;29.40;;;;;;;4.53;96.08;99702.11;103373;1318;138690;-88
2021/12/16 06:33:26;;;;;;;73.80;29.00;;;;;;;4.55;96.14;99701.86;103567;1318;25610;-88
2021/12/16 06:35:55;;;;;;;78.40;32.20;;;;;;;4.56;96.15;99707.15;103604;1323;137969;-89
2021/12/16 06:38:23;;;;;;;86.50;34.00;;;;;;;4.56;95.99;99710.66;103589;1321;24099;-88
2021/12/16 06:41:11;;;;;;;80.90;32.60;;;;;;;4.58;96.02;99713.73;103643;1324;139024;-88
2021/12/16 06:44:09;;;;;;;79.30;31.10;;;;;;;4.60;95.91;99709.93;103446;1319;22616;-88
2021/12/16 06:46:39;;;;;;;84.90;33.40;;;;;;;4.63;96.14;99713.16;103350;1319;22659;-87
2021/12/16 06:49:07;;;;;;;84.80;31.50;;;;;;;4.66;96.11;99712.80;103273;1326;137946;-87
2021/12/16 06:54:26;;;;;;;96.60;36.10;;;;;;;4.71;95.88;99715.35;103888;1321;138591;-88
2021/12/16 06:57:22;;;;;;;93.10;35.60;;;;;;;4.74;95.91;99718.75;103926;1318;22805;-88
2021/12/16 06:59:53;;;;;;;86.10;35.30;;;;;;;4.79;96.05;99720.21;103470;1319;139188;-88
2021/12/16 07:05:10;;;;;;;102.20;40.50;;;;;;;4.83;95.90;99716.67;103341;1324;138222;-87
2021/12/16 07:07:38;;;;;;;108.30;40.50;;;;;;;4.86;95.77;99715.95;103659;1323;25572;-89
2021/12/16 07:10:08;;;;;;;104.10;39.90;;;;;;;4.89;95.70;99713.80;103891;1318;25337;-87
2021/12/16 07:12:37;;;;;;;103.80;39.90;;;;;;;4.91;95.79;99716.20;103729;1322;138070;-88
2021/12/16 07:15:11;;;;;;;;;;;;;;;4.95;95.98;99708.45;103577;1319;22572;-88
2021/12/16 07:17:40;;;;;;;91.40;35.70;;;;;;;4.98;95.81;99707.38;103418;1318;124977;-87
2021/12/16 07:20:09;;;;;;;83.00;36.10;;;;;;;5.00;95.68;99707.13;103577;1321;22644;-88
2021/12/16 07:22:36;;;;;;;87.50;35.50;;;;;;;5.02;95.58;99705.10;103560;1319;22674;-88
2021/12/16 07:25:06;;;;;;;91.40;37.40;;;;;;;5.05;95.54;99709.80;103507;1319;137909;-88
2021/12/16 07:27:34;;;;;;;94.70;37.60;;;;;;;5.05;95.48;99709.23;103604;1318;22674;-88
2021/12/16 07:30:06;;;;;;;95.40;40.40;;;;;;;5.07;95.22;99702.89;103447;1322;138367;-89
2021/12/16 07:32:34;;;;;;;95.20;39.00;;;;;;;5.06;94.94;99698.69;103638;1323;22690;-88
2021/12/16 07:35:04;;;;;;;94.10;39.10;;;;;;;5.05;94.66;99698.44;103635;1322;138398;-88
2021/12/16 07:37:31;;;;;;;94.50;39.80;;;;;;;5.04;94.83;99697.66;103457;1321;23968;-88
2021/12/16 07:40:05;;;;;;;94.80;39.80;;;;;;;5.03;94.72;99696.38;103571;1316;25334;-88
2021/12/16 07:42:42;;;;;;;89.60;36.40;;;;;;;5.03;94.78;99694.92;103510;1326;138721;-88
2021/12/16 07:45:10;;;;;;;84.40;37.40;;;;;;;5.04;94.70;99697.29;103648;1320;25240;-88
2021/12/16 07:47:51;;;;;;;82.00;38.40;;;;;;;5.05;94.67;99695.92;103341;1318;138774;-88
2021/12/16 07:50:20;;;;;;;88.60;39.40;;;;;;;5.05;94.80;99701.09;103541;1319;24269;-88
2021/12/16 07:52:47;;;;;;;91.90;42.90;;;;;;;5.06;94.71;99699.92;103971;1320;24463;-88
2021/12/16 07:55:15;;;;;;;86.80;39.70;;;;;;;5.06;94.58;99700.85;103641;1319;138719;-88
2021/12/16 07:57:42;;;;;;;85.10;41.90;;;;;;;5.06;94.41;99700.98;103519;1318;30798;-87
2021/12/16 08:00:18;;;;;;;90.20;44.80;;;;;;;5.07;94.40;99705.56;103724;1319;138233;-88
2021/12/16 08:02:45;;;;;;;91.30;43.10;;;;;;;5.08;94.56;99706.34;103590;1316;22633;-88
2021/12/16 08:05:15;;;;;;;97.90;45.70;;;;;;;5.07;94.35;99708.95;103715;1325;139309;-88
2021/12/16 08:07:42;;;;;;;89.00;43.40;;;;;;;5.07;94.27;99712.75;103962;1318;22770;-88
2021/12/16 08:10:13;;;;;;;80.50;41.50;;;;;;;5.08;94.11;99715.04;103866;1318;23973;-88
2021/12/16 08:12:40;;;;;;;84.10;40.60;;;;;;;5.10;94.42;99716.23;103570;1318;138089;-88
2021/12/16 08:15:09;;;;;;;83.50;39.60;;;;;;;5.11;94.32;99714.70;103485;1318;22658;-88
2021/12/16 08:17:36;;;;;;;92.90;43.90;;;;;;;5.11;94.31;99711.37;103581;1319;138651;-88
2021/12/16 08:20:05;;;;;;;89.80;41.30;;;;;;;5.10;94.16;99716.39;103465;1321;25332;-88
2021/12/16 08:22:32;;;;;;;76.10;39.60;;;;;;;5.10;93.92;99714.10;103873;1319;22590;-88
2021/12/16 08:24:59;;;;;;;79.40;39.60;;;;;;;5.12;94.11;99717.26;103322;1322;138676;-88
2021/12/16 08:27:27;;;;;;;82.80;41.60;;;;;;;5.14;94.38;99719.91;103642;1319;22620;-88
2021/12/16 08:29:54;;;;;;;89.50;43.00;;;;;;;5.16;94.10;99716.11;103343;1323;137811;-88
2021/12/16 08:32:21;;;;;;;86.50;41.60;;;;;;;5.17;93.91;99714.21;103965;1318;22596;-89
2021/12/16 08:34:48;;;;;;;77.70;39.10;;;;;;;5.17;93.89;99717.23;103874;1320;22622;-89
2021/12/16 08:37:15;;;;;;;75.60;37.40;;;;;;;5.17;93.87;99715.23;103418;1318;138216;-88
2021/12/16 08:39:44;;;;;;;81.30;39.10;;;;;;;5.19;94.06;99716.33;103544;1322;22709;-88
2021/12/16 08:42:12;;;;;;;81.50;39.90;;;;;;;5.19;94.12;99713.88;103004;1325;138451;-88
2021/12/16 08:44:39;;;;;;;84.10;41.10;;;;;;;5.20;93.98;99713.95;103503;1322;22808;-89
2021/12/16 08:47:10;;;;;;;78.20;39.60;;;;;;;5.19;93.68;99710.33;103551;1325;138571;-90
2021/12/16 08:49:51;;;;;;;66.10;32.00;;;;;;;5.19;93.86;99712.69;103956;1322;23352;-88
2021/12/16 08:52:32;;;;;;;80.60;40.80;;;;;;;5.16;93.69;99708.72;103702;1320;26649;-89
2021/12/16 08:55:00;;;;;;;84.80;39.60;;;;;;;5.16;93.78;99709.77;103353;1322;139199;-89
2021/12/16 08:57:28;;;;;;;75.10;38.20;;;;;;;5.14;93.63;99704.41;103710;1318;22606;-89
2021/12/16 08:59:56;;;;;;;75.20;36.80;;;;;;;5.15;93.77;99703.42;103773;1318;139440;-89
2021/12/16 09:02:23;;;;;;;73.30;37.20;;;;;;;5.17;93.71;99704.60;103572;1320;22633;-88
2021/12/16 09:04:51;;;;;;;71.20;34.40;;;;;;;5.17;93.58;99703.38;103821;1319;22638;-89
2021/12/16 09:07:18;;;;;;;77.60;37.90;;;;;;;5.16;93.65;99701.16;103409;1319;138399;-88
2021/12/16 09:09:46;;;;;;;71.90;36.50;;;;;;;5.17;93.64;99695.48;103272;1319;22592;-88
2021/12/16 09:15:19;;;;;;;73.10;37.00;;;;;;;5.20;93.73;99692.18;103318;1322;23926;-88
2021/12/16 09:17:46;;;;;;;70.90;38.20;;;;;;;5.22;93.87;99692.91;103614;1323;137980;-88
2021/12/16 09:20:14;;;;;;;75.30;38.80;;;;;;;5.22;93.70;99694.63;103350;1322;22587;-88
2021/12/16 09:22:42;;;;;;;76.30;38.90;;;;;;;5.22;93.45;99696.08;103175;1323;25499;-89
2021/12/16 09:25:10;;;;;;;67.10;34.60;;;;;;;5.22;93.38;99694.54;104553;1316;138398;-88
2021/12/16 09:27:37;;;;;;;63.60;32.50;;;;;;;5.22;93.44;99692.34;103725;1319;25344;-89
2021/12/16 09:30:08;;;;;;;72.10;36.40;;;;;;;5.23;93.42;99697.09;104100;1316;138152;-88
2021/12/16 09:32:36;;;;;;;75.70;39.60;;;;;;;5.23;93.60;99690.57;103826;1323;24286;-88
2021/12/16 09:35:06;;;;;;;72.10;35.10;;;;;;;5.24;93.56;99683.98;103841;1319;138711;-87
2021/12/16 09:37:33;;;;;;;76.80;37.90;;;;;;;5.25;93.42;99689.86;104291;1319;22594;-88
2021/12/16 09:40:02;;;;;;;71.20;35.10;;;;;;;5.25;93.35;99680.65;103715;1319;24271;-88
2021/12/16 09:42:30;;;;;;;68.90;34.30;;;;;;;5.26;93.36;99679.76;103596;1322;138423;-88
2021/12/16 09:44:58;;;;;;;66.30;33.00;;;;;;;5.27;93.39;99674.48;104796;1319;22599;-88
2021/12/16 09:47:27;;;;;;;76.30;36.60;;;;;;;5.28;93.30;99678.36;103872;1319;138342;-89
2021/12/16 09:49:54;;;;;;;77.40;35.70;;;;;;;5.29;93.35;99674.03;104048;1318;22599;-88
2021/12/16 09:52:21;;;;;;;72.10;34.00;;;;;;;5.30;93.20;99672.37;103760;1319;22626;-88
2021/12/16 09:54:49;;;;;;;59.20;30.50;;;;;;;5.29;93.11;99672.48;103919;1320;137662;-88
2021/12/16 09:57:17;;;;;;;77.40;37.00;;;;;;;5.28;93.25;99673.25;104419;1318;22703;-88
2021/12/16 09:59:45;;;;;;;72.00;36.20;;;;;;;5.29;93.34;99663.23;104199;1323;139033;-88
2021/12/16 10:02:16;;;;;;;73.90;36.60;;;;;;;5.30;93.14;99660.20;103820;1318;22681;-89
2021/12/16 10:04:45;;;;;;;67.80;32.40;;;;;;;5.31;93.20;99657.00;104030;1319;24320;-87
2021/12/16 10:07:21;;;;;;;66.60;33.70;;;;;;;5.33;93.00;99654.82;103656;1318;138676;-88
2021/12/16 10:09:50;;;;;;;63.20;32.30;;;;;;;5.36;92.94;99648.35;104327;1316;22370;-89
2021/12/16 10:12:23;;;;;;;67.90;35.70;;;;;;;5.40;92.96;99643.58;103588;1319;138651;-88
2021/12/16 10:17:41;;;;;;;68.70;32.80;;;;;;;5.54;92.92;99640.81;103730;1316;138757;-88
2021/12/16 10:20:15;;;;;;;70.20;34.50;;;;;;;5.58;92.71;99636.98;103789;1320;25345;-88
2021/12/16 10:22:45;;;;;;;78.20;38.30;;;;;;;5.59;92.74;99636.13;104031;1318;23385;-89
2021/12/16 10:25:29;;;;;;;74.60;37.40;;;;;;;5.61;92.92;99641.77;103715;1323;138619;-88
2021/12/16 10:28:16;;;;;;;67.40;34.30;;;;;;;5.63;92.50;99639.42;103737;1318;22625;-88
2021/12/16 10:30:52;;;;;;;66.80;34.00;;;;;;;5.63;92.15;99639.23;103697;1319;138414;-88
2021/12/16 10:33:25;;;;;;;62.70;34.80;;;;;;;5.64;92.16;99641.64;104106;1319;23344;-89
2021/12/16 10:36:11;;;;;;;63.70;33.70;;;;;;;5.64;92.31;99637.90;103621;1326;137788;-89
2021/12/16 10:38:50;;;;;;;75.00;37.60;;;;;;;5.64;92.13;99638.27;103828;1319;22597;-88
2021/12/16 10:41:28;;;;;;;68.60;35.70;;;;;;;5.65;92.08;99637.51;103515;1325;138978;-88
2021/12/16 10:44:01;;;;;;;68.10;36.70;;;;;;;5.69;92.23;99641.73;104399;1325;23623;-86
2021/12/16 10:46:33;;;;;;;64.40;35.70;;;;;;;5.72;92.10;99652.38;103889;1322;22597;-87
2021/12/16 10:49:05;;;;;;;63.60;34.90;;;;;;;5.74;92.04;99654.14;104224;1318;137865;-89
2021/12/16 10:51:42;;;;;;;68.70;36.20;;;;;;;5.73;91.84;99648.83;103860;1322;29883;-87
2021/12/16 10:54:14;;;;;;;63.30;35.30;;;;;;;5.74;91.83;99643.90;103927;1322;138433;-86
2021/12/16 10:56:49;;;;;;;66.10;34.50;;;;;;;5.75;91.93;99643.63;103918;1322;25120;-88
2021/12/16 10:59:24;;;;;;;64.30;34.40;;;;;;;5.77;92.05;99645.67;104134;1322;138496;-88
2021/12/16 11:01:53;;;;;;;64.80;36.20;;;;;;;5.77;91.78;99639.92;103865;1321;30674;-87
2021/12/16 11:04:25;;;;;;;67.70;35.90;;;;;;;5.76;91.75;99637.67;103684;1324;22656;-87
2021/12/16 11:07:13;;;;;;;56.70;31.40;;;;;;;5.75;91.86;99635.58;103831;1322;138983;-86
2021/12/16 11:09:44;;;;;;;62.10;33.70;;;;;;;5.75;91.78;99632.17;103992;1322;22875;-87
2021/12/16 11:12:38;;;;;;;58.40;31.00;;;;;;;5.74;91.85;99629.45;103792;1324;138245;-88
2021/12/16 11:15:08;;;;;;;59.40;34.10;;;;;;;5.74;91.99;99626.07;103972;1321;23310;-88
2021/12/16 11:17:40;;;;;;;62.60;33.10;;;;;;;5.73;92.11;99629.27;103931;1319;138249;-87
2021/12/16 11:20:33;;;;;;;59.60;34.80;;;;;;;5.72;92.15;99628.22;103807;1318;24307;-88
2021/12/16 11:23:04;;;;;;;57.80;30.90;;;;;;;5.75;92.43;99629.91;103664;1318;138567;-87
2021/12/16 11:25:56;;;;;;;56.80;29.60;;;;;;;5.78;92.52;99629.75;103863;1318;23491;-86
2021/12/16 11:28:42;;;;;;;56.30;32.80;;;;;;;5.81;92.69;99628.73;103999;1318;23226;-88
2021/12/16 11:31:09;;;;;;;49.80;29.70;;;;;;;5.83;92.69;99624.05;103859;1318;137976;-87
2021/12/16 11:33:42;;;;;;;52.40;29.20;;;;;;;5.83;92.60;99619.23;104036;1319;25275;-86
2021/12/16 11:36:21;;;;;;;57.00;32.00;;;;;;;5.81;92.56;99617.25;103514;1322;138608;-88
2021/12/16 11:38:51;;;;;;;48.70;27.60;;;;;;;5.82;92.51;99615.55;103715;1319;22558;-87
2021/12/16 11:41:23;;;;;;;47.30;28.10;;;;;;;5.82;92.47;99609.93;103680;1322;138721;-89
2021/12/16 11:44:16;;;;;;;48.70;28.50;;;;;;;5.84;92.60;99608.73;103234;1320;23512;-87
2021/12/16 11:46:52;;;;;;;50.70;27.60;;;;;;;5.88;92.78;99610.69;103493;1318;24215;-87
2021/12/16 11:49:21;;;;;;;56.80;29.80;;;;;;;5.87;92.84;99609.98;103357;1322;138276;-86
2021/12/16 11:52:11;;;;;;;48.60;27.70;;;;;;;5.87;92.76;99615.80;103347;1324;22654;-86
2021/12/16 11:54:41;;;;;;;41.40;23.60;;;;;;;5.88;92.61;99616.93;103764;1322;138437;-87
2021/12/16 11:57:24;;;;;;;46.00;26.50;;;;;;;5.89;92.82;99615.20;103558;1323;22696;-87
2021/12/16 11:59:58;;;;;;;46.40;26.70;;;;;;;5.90;92.62;99614.52;103437;1325;138099;-88
2021/12/16 12:02:34;;;;;;;49.00;26.40;;;;;;;5.91;92.74;99620.75;103699;1324;22587;-87
2021/12/16 12:05:34;;;;;;;42.20;25.90;;;;;;;5.90;92.51;99619.75;103369;1324;138541;-87
2021/12/16 12:08:10;;;;;;;39.90;24.00;;;;;;;5.92;92.54;99612.20;104008;1319;221236;-87
2021/12/16 12:11:00;;;;;;;41.90;24.30;;;;;;;5.93;92.41;99609.39;103475;1322;23166;-85
2021/12/16 12:13:40;;;;;;;44.00;26.50;;;;;;;5.93;92.47;99612.39;103505;1319;137667;-87
2021/12/16 12:16:14;;;;;;;47.20;26.70;;;;;;;5.92;92.77;99611.88;103869;1321;22654;-86
2021/12/16 12:18:49;;;;;;;44.30;26.60;;;;;;;5.91;92.50;99613.70;103445;1319;138507;-87
2021/12/16 12:21:22;;;;;;;44.80;25.30;;;;;;;5.91;92.86;99605.23;103758;1319;23286;-87
2021/12/16 12:24:12;;;;;;;42.20;25.40;;;;;;;5.92;92.68;99609.13;103595;1321;138200;-85
2021/12/16 12:26:53;;;;;;;45.80;25.50;;;;;;;5.91;92.59;99609.53;103426;1319;22694;-87
2021/12/16 12:29:45;;;;;;;49.40;28.60;;;;;;;5.91;92.84;99616.23;103619;1319;138044;-86
2021/12/16 12:32:35;;;;;;;45.90;27.10;;;;;;;5.92;92.80;99615.04;103584;1325;22593;-87
2021/12/16 12:35:09;;;;;;;40.90;26.10;;;;;;;5.90;92.55;99613.96;103292;1319;25406;-88
2021/12/16 12:37:41;;;;;;;45.40;26.90;;;;;;;5.90;92.64;99621.16;103217;1322;138185;-88
2021/12/16 12:40:08;;;;;;;45.10;26.40;;;;;;;5.90;92.81;99619.01;103496;1324;22603;-86
2021/12/16 12:42:37;;;;;;;47.50;27.80;;;;;;;5.90;92.82;99620.41;103210;1325;138028;-87
2021/12/16 12:45:08;;;;;;;47.10;26.20;;;;;;;5.89;92.88;99616.39;103709;1325;24418;-86
2021/12/16 12:47:37;;;;;;;47.50;26.00;;;;;;;5.89;92.71;99616.20;103180;1326;138952;-86
2021/12/16 12:50:25;;;;;;;46.20;26.10;;;;;;;5.88;92.57;99620.30;103694;1325;22587;-87
2021/12/16 12:52:55;;;;;;;46.30;27.50;;;;;;;5.87;92.76;99620.96;103515;1322;25386;-86
2021/12/16 12:55:29;;;;;;;50.30;28.10;;;;;;;5.85;92.64;99614.36;103339;1321;137871;-88
2021/12/16 12:58:08;;;;;;;47.40;28.00;;;;;;;5.86;92.84;99600.46;103573;1325;25285;-87
2021/12/16 13:00:52;;;;;;;42.70;26.50;;;;;;;5.86;92.78;99595.12;103390;1324;138466;-87
2021/12/16 13:03:34;;;;;;;46.10;26.60;;;;;;;5.86;92.68;99588.88;103280;1325;25428;-87
2021/12/16 13:06:12;;;;;;;50.70;28.40;;;;;;;5.90;92.91;99604.98;103329;1325;138248;-87
2021/12/16 13:08:45;;;;;;;50.30;28.20;;;;;;;5.91;92.73;99605.78;103609;1324;24147;-88
2021/12/16 13:11:16;;;;;;;48.90;28.60;;;;;;;5.91;92.82;99601.25;103595;1323;22241;-89
2021/12/16 13:14:13;;;;;;;45.50;25.60;;;;;;;5.92;92.88;99594.73;103285;1319;139294;-88
2021/12/16 13:28:40;;;;;;;44.20;26.30;;;;;;;5.94;92.73;99608.63;103536;1319;25433;-87
2021/12/16 13:32:04;;;;;;;43.60;25.70;;;;;;;5.95;92.73;99611.59;103404;1317;138493;-88
2021/12/16 13:35:12;;;;;;;38.10;22.80;;;;;;;5.93;92.47;99615.67;103673;1321;22590;-88
2021/12/16 13:37:43;;;;;;;47.50;28.20;;;;;;;5.87;92.45;99613.46;103392;1322;138527;-87
2021/12/16 13:40:25;;;;;;;43.40;25.60;;;;;;;5.85;92.47;99608.27;103708;1322;25265;-87
2021/12/16 13:43:01;;;;;;;41.40;25.20;;;;;;;5.85;92.74;99603.74;103267;1326;138458;-87
2021/12/16 13:45:39;;;;;;;42.60;25.40;;;;;;;5.87;92.77;99594.30;103516;1324;30878;-87
2021/12/16 13:48:48;;;;;;;;;;;;;;;5.87;92.77;99609.06;103502;1325;138203;-88
2021/12/16 14:07:54;;;;;;;47.20;28.00;;;;;;;5.83;93.40;99567.78;102731;1324;138403;-88
2021/12/16 14:10:18;;;;;;;44.60;27.10;;;;;;;5.84;93.53;99589.34;102702;1331;22761;-88
2021/12/16 14:24:59;;;;;;;37.70;22.80;;;;;;;5.88;93.27;99617.60;102787;1331;139716;-88
2021/12/16 14:34:21;;;;;;;40.30;25.70;;;;;;;5.83;93.43;99615.54;103025;1330;22604;-89
2021/12/16 14:42:08;;;;;;;36.30;22.50;;;;;;;5.86;93.32;99612.33;103250;1320;138634;-88
2021/12/16 14:50:22;;;;;;;38.30;23.70;;;;;;;5.81;93.45;99619.61;103560;1319;22604;-88
2021/12/16 14:52:49;;;;;;;39.30;24.50;;;;;;;5.80;93.57;99618.34;103479;1320;22667;-88
2021/12/16 14:55:18;;;;;;;45.30;26.20;;;;;;;5.79;93.62;99622.88;103649;1320;138075;-87
2021/12/16 14:57:47;;;;;;;;;;;;;;;5.79;93.74;99628.52;103591;1321;22570;-88
2021/12/16 15:00:28;;;;;;;37.60;23.90;;;;;;;5.78;93.67;99635.13;103204;1316;124499;-88
2021/12/16 15:03:05;;;;;;;36.70;23.70;;;;;;;5.77;93.69;99635.04;103589;1317;22579;-88
2021/12/16 15:05:43;;;;;;;35.80;21.70;;;;;;;5.77;93.65;99632.02;103267;1324;138358;-88
2021/12/16 15:08:23;;;;;;;37.10;23.10;;;;;;;5.75;93.71;99628.39;103462;1319;22645;-88
2021/12/16 15:10:52;;;;;;;47.20;27.80;;;;;;;5.73;94.05;99617.29;103518;1318;22603;-88